Time,TemperatureF,DewpointF,PressureIn,WindDirection,WindDirectionDegrees,WindSpeedMPH,WindSpeedGustMPH,Humidity,HourlyPrecipIn,Conditions,Clouds,dailyrainin,SolarRadiationWatts/m^2,SoftwareType,DateUTC
2013-05-28 00:03:00,61.0,54.0,-100.00,WSW,251,1.0,4.0,78,0.00,,,0.00,0.000000,,2013-05-28 04:03:00,
2013-05-28 00:13:00,61.0,54.0,-100.00,WSW,251,1.0,4.0,78,0.00,,,0.00,0.000000,,2013-05-28 04:13:00,
2013-05-28 00:33:00,61.0,54.0,-100.00,SSW,207,2.0,4.0,79,0.00,,,0.00,0.000000,,2013-05-28 04:33:00,
2013-05-28 00:43:00,61.0,54.0,-100.00,SSW,207,2.0,4.0,79,0.00,,,0.00,0.000000,,2013-05-28 04:43:00,
2013-05-28 00:53:00,61.0,54.0,-100.00,SSW,207,2.0,4.0,79,0.00,,,0.00,0.000000,,2013-05-28 04:53:00,
2013-05-28 01:02:00,61.0,54.0,-100.00,SSW,207,2.0,4.0,79,0.00,,,0.00,0.000000,,2013-05-28 05:02:00,
2013-05-28 01:12:00,61.0,54.0,-100.00,SSW,207,2.0,4.0,79,0.00,,,0.00,0.000000,,2013-05-28 05:12:00,
2013-05-28 01:33:00,60.0,54.0,-100.00,SSW,212,2.0,4.0,82,0.00,,,0.00,0.000000,,2013-05-28 05:33:00,
2013-05-28 01:42:00,60.0,54.0,-100.00,SSW,212,2.0,4.0,82,0.00,,,0.00,0.000000,,2013-05-28 05:42:00,
2013-05-28 01:52:00,60.0,54.0,-100.00,SSW,212,2.0,4.0,82,0.00,,,0.00,0.000000,,2013-05-28 05:52:00,
2013-05-28 02:02:00,60.0,54.0,-100.00,SSW,212,2.0,4.0,82,0.00,,,0.00,0.000000,,2013-05-28 06:02:00,
2013-05-28 02:12:00,60.0,54.0,-100.00,SSW,212,2.0,4.0,82,0.00,,,0.00,0.000000,,2013-05-28 06:12:00,
2013-05-28 02:32:00,59.0,54.0,-100.00,WNW,283,1.0,4.0,84,0.00,,,0.00,0.000000,,2013-05-28 06:32:00,
2013-05-28 02:42:00,59.0,54.0,-100.00,WNW,283,1.0,4.0,84,0.00,,,0.00,0.000000,,2013-05-28 06:42:00,
2013-05-28 02:52:00,59.0,54.0,-100.00,WNW,283,1.0,4.0,84,0.00,,,0.00,0.000000,,2013-05-28 06:52:00,
2013-05-28 03:02:00,59.0,54.0,-100.00,WNW,283,1.0,4.0,84,0.00,,,0.00,0.000000,,2013-05-28 07:02:00,
2013-05-28 03:11:00,59.0,54.0,-100.00,WNW,283,1.0,4.0,84,0.00,,,0.00,0.000000,,2013-05-28 07:11:00,
2013-05-28 03:32:00,59.0,55.0,-100.00,ENE,74,2.0,4.0,88,0.00,,,0.00,0.000000,,2013-05-28 07:32:00,
2013-05-28 03:42:00,59.0,55.0,-100.00,ENE,74,2.0,4.0,88,0.00,,,0.00,0.000000,,2013-05-28 07:42:00,
2013-05-28 03:52:00,59.0,55.0,-100.00,ENE,74,2.0,4.0,88,0.00,,,0.00,0.000000,,2013-05-28 07:52:00,
2013-05-28 04:02:00,59.0,55.0,-100.00,ENE,74,2.0,4.0,88,0.00,,,0.00,0.000000,,2013-05-28 08:02:00,
2013-05-28 04:12:00,59.0,55.0,-100.00,ENE,74,2.0,4.0,88,0.00,,,0.00,0.000000,,2013-05-28 08:12:00,
2013-05-28 04:32:00,58.0,54.0,-100.00,SSE,166,2.0,3.0,87,0.00,,,0.00,0.000000,,2013-05-28 08:32:00,
2013-05-28 04:42:00,58.0,54.0,-100.00,SSE,166,2.0,3.0,87,0.00,,,0.00,0.000000,,2013-05-28 08:42:00,
2013-05-28 04:52:00,58.0,54.0,-100.00,SSE,166,2.0,3.0,87,0.00,,,0.00,0.000000,,2013-05-28 08:52:00,
2013-05-28 05:01:00,58.0,54.0,-100.00,SSE,166,2.0,3.0,87,0.00,,,0.00,0.000000,,2013-05-28 09:01:00,
2013-05-28 05:11:00,58.0,54.0,-100.00,SSE,166,2.0,3.0,87,0.00,,,0.00,0.000000,,2013-05-28 09:11:00,
2013-05-28 05:33:00,58.0,54.0,-100.00,SW,225,0.0,3.0,88,0.00,,,0.00,0.000000,,2013-05-28 09:33:00,
2013-05-28 05:43:00,58.0,54.0,-100.00,SW,225,0.0,3.0,88,0.00,,,0.00,0.000000,,2013-05-28 09:43:00,
2013-05-28 05:54:00,58.0,54.0,-100.00,SW,225,0.0,3.0,88,0.00,,,0.00,0.000000,,2013-05-28 09:54:00,
2013-05-28 06:03:00,58.0,54.0,-100.00,SW,225,0.0,3.0,88,0.00,,,0.00,0.000000,,2013-05-28 10:03:00,
2013-05-28 06:12:00,58.0,54.0,-100.00,SW,225,0.0,3.0,88,0.00,,,0.00,0.000000,,2013-05-28 10:12:00,
2013-05-28 06:32:00,58.0,54.0,-100.00,West,271,0.0,3.0,87,0.00,,,0.00,0.000000,,2013-05-28 10:32:00,
2013-05-28 06:43:00,58.0,54.0,-100.00,West,271,0.0,3.0,87,0.00,,,0.00,0.000000,,2013-05-28 10:43:00,
2013-05-28 06:53:00,58.0,54.0,-100.00,West,271,0.0,3.0,87,0.00,,,0.00,0.000000,,2013-05-28 10:53:00,
2013-05-28 07:02:00,58.0,54.0,-100.00,West,271,0.0,3.0,87,0.00,,,0.00,0.000000,,2013-05-28 11:02:00,
2013-05-28 07:11:00,58.0,54.0,-100.00,West,271,0.0,3.0,87,0.00,,,0.00,0.000000,,2013-05-28 11:11:00,
2013-05-28 07:32:00,59.0,55.0,-100.00,West,265,0.0,0.0,86,0.00,,,0.00,23.000000,,2013-05-28 11:32:00,
2013-05-28 07:42:00,59.0,55.0,-100.00,West,265,0.0,0.0,86,0.00,,,0.00,23.000000,,2013-05-28 11:42:00,
2013-05-28 07:52:00,59.0,55.0,-100.00,West,265,0.0,0.0,86,0.00,,,0.00,23.000000,,2013-05-28 11:52:00,
2013-05-28 08:02:00,59.0,55.0,-100.00,West,265,0.0,0.0,86,0.00,,,0.00,23.000000,,2013-05-28 12:02:00,
2013-05-28 08:11:00,59.0,55.0,-100.00,West,265,0.0,0.0,86,0.00,,,0.00,23.000000,,2013-05-28 12:11:00,
2013-05-28 08:32:00,61.0,56.0,-100.00,SSE,147,0.0,0.0,83,0.00,,,0.00,72.000000,,2013-05-28 12:32:00,
2013-05-28 08:42:00,61.0,56.0,-100.00,SSE,147,0.0,0.0,83,0.00,,,0.00,72.000000,,2013-05-28 12:42:00,
2013-05-28 08:52:00,61.0,56.0,-100.00,SSE,147,0.0,0.0,83,0.00,,,0.00,72.000000,,2013-05-28 12:52:00,
2013-05-28 09:01:00,61.0,56.0,-100.00,SSE,147,0.0,0.0,83,0.00,,,0.00,72.000000,,2013-05-28 13:01:00,
2013-05-28 09:11:00,61.0,56.0,-100.00,SSE,147,0.0,0.0,83,0.00,,,0.00,72.000000,,2013-05-28 13:11:00,
2013-05-28 09:42:00,66.0,59.0,-100.00,SSE,147,1.0,3.0,78,0.00,,,0.00,215.000000,,2013-05-28 13:42:00,
2013-05-28 09:52:00,66.0,59.0,-100.00,SSE,147,1.0,3.0,78,0.00,,,0.00,215.000000,,2013-05-28 13:52:00,
2013-05-28 10:02:00,66.0,59.0,-100.00,SSE,147,1.0,3.0,78,0.00,,,0.00,215.000000,,2013-05-28 14:02:00,
2013-05-28 10:12:00,66.0,59.0,-100.00,SSE,147,1.0,3.0,78,0.00,,,0.00,215.000000,,2013-05-28 14:12:00,
2013-05-28 10:32:00,69.0,58.0,-100.00,West,262,3.0,11.0,68,0.00,,,0.00,370.000000,,2013-05-28 14:32:00,
2013-05-28 10:42:00,69.0,58.0,-100.00,West,262,3.0,11.0,68,0.00,,,0.00,370.000000,,2013-05-28 14:42:00,
2013-05-28 10:52:00,69.0,58.0,-100.00,West,262,3.0,11.0,68,0.00,,,0.00,370.000000,,2013-05-28 14:52:00,
2013-05-28 11:01:00,69.0,58.0,-100.00,West,262,3.0,11.0,68,0.00,,,0.00,370.000000,,2013-05-28 15:01:00,
2013-05-28 11:11:00,69.0,58.0,-100.00,West,262,3.0,11.0,68,0.00,,,0.00,370.000000,,2013-05-28 15:11:00,
2013-05-28 11:33:00,74.0,59.0,-100.00,West,263,5.0,16.0,60,0.00,,,0.00,653.000000,,2013-05-28 15:33:00,
2013-05-28 11:43:00,74.0,59.0,-100.00,West,263,5.0,16.0,60,0.00,,,0.00,653.000000,,2013-05-28 15:43:00,
2013-05-28 11:53:00,74.0,59.0,-100.00,West,263,5.0,16.0,60,0.00,,,0.00,653.000000,,2013-05-28 15:53:00,
2013-05-28 12:03:00,74.0,59.0,-100.00,West,263,5.0,16.0,60,0.00,,,0.00,653.000000,,2013-05-28 16:03:00,
2013-05-28 12:13:00,74.0,59.0,-100.00,West,263,5.0,16.0,60,0.00,,,0.00,653.000000,,2013-05-28 16:13:00,
2013-05-28 12:33:00,76.0,55.0,-100.00,West,268,5.0,16.0,48,0.00,,,0.00,692.000000,,2013-05-28 16:33:00,
2013-05-28 12:42:00,76.0,55.0,-100.00,West,268,5.0,16.0,48,0.00,,,0.00,692.000000,,2013-05-28 16:42:00,
2013-05-28 12:53:00,76.0,55.0,-100.00,West,268,5.0,16.0,48,0.00,,,0.00,692.000000,,2013-05-28 16:53:00,
2013-05-28 13:02:00,76.0,55.0,-100.00,West,268,5.0,16.0,48,0.00,,,0.00,692.000000,,2013-05-28 17:02:00,
2013-05-28 13:12:00,76.0,55.0,-100.00,West,268,5.0,16.0,48,0.00,,,0.00,692.000000,,2013-05-28 17:12:00,
2013-05-28 13:32:00,76.0,52.0,-100.00,WSW,251,5.0,15.0,43,0.00,,,0.00,636.000000,,2013-05-28 17:32:00,
2013-05-28 13:42:00,76.0,52.0,-100.00,WSW,251,5.0,15.0,43,0.00,,,0.00,636.000000,,2013-05-28 17:42:00,
2013-05-28 13:52:00,76.0,52.0,-100.00,WSW,251,5.0,15.0,43,0.00,,,0.00,636.000000,,2013-05-28 17:52:00,
2013-05-28 14:01:00,76.0,52.0,-100.00,WSW,251,5.0,15.0,43,0.00,,,0.00,636.000000,,2013-05-28 18:01:00,
2013-05-28 14:11:00,76.0,52.0,-100.00,WSW,251,5.0,15.0,43,0.00,,,0.00,636.000000,,2013-05-28 18:11:00,
2013-05-28 14:32:00,79.0,56.0,-100.00,WNW,291,4.0,9.0,45,0.00,,,0.00,634.000000,,2013-05-28 18:32:00,
2013-05-28 14:43:00,79.0,56.0,-100.00,WNW,291,4.0,9.0,45,0.00,,,0.00,634.000000,,2013-05-28 18:43:00,
2013-05-28 14:52:00,79.0,56.0,-100.00,WNW,291,4.0,9.0,45,0.00,,,0.00,634.000000,,2013-05-28 18:52:00,
2013-05-28 15:01:00,79.0,56.0,-100.00,WNW,291,4.0,9.0,45,0.00,,,0.00,634.000000,,2013-05-28 19:01:00,
2013-05-28 15:11:00,79.0,56.0,-100.00,WNW,291,4.0,9.0,45,0.00,,,0.00,634.000000,,2013-05-28 19:11:00,
2013-05-28 15:32:00,80.0,53.0,-100.00,WSW,249,5.0,10.0,40,0.00,,,0.00,695.000000,,2013-05-28 19:32:00,
2013-05-28 15:42:00,80.0,53.0,-100.00,WSW,249,5.0,10.0,40,0.00,,,0.00,695.000000,,2013-05-28 19:42:00,
2013-05-28 15:52:00,80.0,53.0,-100.00,WSW,249,5.0,10.0,40,0.00,,,0.00,695.000000,,2013-05-28 19:52:00,
2013-05-28 16:02:00,80.0,53.0,-100.00,WSW,249,5.0,10.0,40,0.00,,,0.00,695.000000,,2013-05-28 20:02:00,
2013-05-28 16:11:00,80.0,53.0,-100.00,WSW,249,5.0,10.0,40,0.00,,,0.00,695.000000,,2013-05-28 20:11:00,
2013-05-28 16:32:00,80.0,52.0,-100.00,WSW,244,5.0,11.0,38,0.00,,,0.00,586.000000,,2013-05-28 20:32:00,
2013-05-28 16:42:00,80.0,52.0,-100.00,WSW,244,5.0,11.0,38,0.00,,,0.00,586.000000,,2013-05-28 20:42:00,
2013-05-28 16:52:00,80.0,52.0,-100.00,WSW,244,5.0,11.0,38,0.00,,,0.00,586.000000,,2013-05-28 20:52:00,
2013-05-28 17:02:00,80.0,52.0,-100.00,WSW,244,5.0,11.0,38,0.00,,,0.00,586.000000,,2013-05-28 21:02:00,
2013-05-28 17:11:00,80.0,52.0,-100.00,WSW,244,5.0,11.0,38,0.00,,,0.00,586.000000,,2013-05-28 21:11:00,
2013-05-28 17:43:00,80.0,48.0,-100.00,WSW,255,5.0,12.0,33,0.00,,,0.00,514.000000,,2013-05-28 21:43:00,
2013-05-28 17:53:00,80.0,48.0,-100.00,WSW,255,5.0,12.0,33,0.00,,,0.00,514.000000,,2013-05-28 21:53:00,
2013-05-28 18:02:00,80.0,48.0,-100.00,WSW,255,5.0,12.0,33,0.00,,,0.00,514.000000,,2013-05-28 22:02:00,
2013-05-28 18:13:00,80.0,48.0,-100.00,WSW,255,5.0,12.0,33,0.00,,,0.00,514.000000,,2013-05-28 22:13:00,
2013-05-28 18:33:00,79.0,50.0,-100.00,WSW,243,4.0,12.0,36,0.00,,,0.00,383.000000,,2013-05-28 22:33:00,
2013-05-28 18:42:00,79.0,50.0,-100.00,WSW,243,4.0,12.0,36,0.00,,,0.00,383.000000,,2013-05-28 22:42:00,
2013-05-28 18:52:00,79.0,50.0,-100.00,WSW,243,4.0,12.0,36,0.00,,,0.00,383.000000,,2013-05-28 22:52:00,
2013-05-28 19:02:00,79.0,50.0,-100.00,WSW,243,4.0,12.0,36,0.00,,,0.00,383.000000,,2013-05-28 23:02:00,
2013-05-28 19:11:00,79.0,50.0,-100.00,WSW,243,4.0,12.0,36,0.00,,,0.00,383.000000,,2013-05-28 23:11:00,
2013-05-28 19:32:00,77.0,52.0,-100.00,SW,221,2.0,11.0,42,0.00,,,0.00,191.000000,,2013-05-28 23:32:00,
2013-05-28 19:42:00,77.0,52.0,-100.00,SW,221,2.0,11.0,42,0.00,,,0.00,191.000000,,2013-05-28 23:42:00,
2013-05-28 19:52:00,77.0,52.0,-100.00,SW,221,2.0,11.0,42,0.00,,,0.00,191.000000,,2013-05-28 23:52:00,
2013-05-28 20:02:00,77.0,52.0,-100.00,SW,221,2.0,11.0,42,0.00,,,0.00,191.000000,,2013-05-29 00:02:00,
2013-05-28 20:11:00,77.0,52.0,-100.00,SW,221,2.0,11.0,42,0.00,,,0.00,191.000000,,2013-05-29 00:11:00,
2013-05-28 20:42:00,71.0,55.0,-100.00,South,180,3.0,7.0,57,0.00,,,-99.99,63.000000,,2013-05-29 00:42:00,
2013-05-28 20:52:00,71.0,55.0,-100.00,South,180,3.0,7.0,57,0.00,,,-99.99,63.000000,,2013-05-29 00:52:00,
2013-05-28 21:01:00,71.0,55.0,-100.00,South,180,3.0,7.0,57,0.00,,,-99.99,63.000000,,2013-05-29 01:01:00,
2013-05-28 21:11:00,71.0,55.0,-100.00,South,180,3.0,7.0,57,0.00,,,-99.99,63.000000,,2013-05-29 01:11:00,
2013-05-28 21:32:00,67.0,55.0,-100.00,SSW,208,2.0,6.0,66,0.00,,,0.00,3.000000,,2013-05-29 01:32:00,
2013-05-28 21:42:00,67.0,55.0,-100.00,SSW,208,2.0,6.0,66,0.00,,,0.00,3.000000,,2013-05-29 01:42:00,
2013-05-28 21:52:00,67.0,55.0,-100.00,SSW,208,2.0,6.0,66,0.00,,,0.00,3.000000,,2013-05-29 01:52:00,
2013-05-28 22:02:00,67.0,55.0,-100.00,SSW,208,2.0,6.0,66,0.00,,,0.00,3.000000,,2013-05-29 02:02:00,
2013-05-28 22:12:00,67.0,55.0,-100.00,SSW,208,2.0,6.0,66,0.00,,,0.00,3.000000,,2013-05-29 02:12:00,
2013-05-28 22:32:00,65.0,56.0,-100.00,SSW,213,2.0,4.0,74,0.00,,,0.00,0.000000,,2013-05-29 02:32:00,
2013-05-28 22:42:00,65.0,56.0,-100.00,SSW,213,2.0,4.0,74,0.00,,,0.00,0.000000,,2013-05-29 02:42:00,
2013-05-28 22:52:00,65.0,56.0,-100.00,SSW,213,2.0,4.0,74,0.00,,,0.00,0.000000,,2013-05-29 02:52:00,
2013-05-28 23:02:00,65.0,56.0,-100.00,SSW,213,2.0,4.0,74,0.00,,,0.00,0.000000,,2013-05-29 03:02:00,
2013-05-28 23:12:00,65.0,56.0,-100.00,SSW,213,2.0,4.0,74,0.00,,,0.00,0.000000,,2013-05-29 03:12:00,
2013-05-28 23:33:00,65.0,58.0,-100.00,SW,226,1.0,4.0,78,0.00,,,0.00,0.000000,,2013-05-29 03:33:00,
2013-05-28 23:43:00,65.0,58.0,-100.00,SW,226,1.0,4.0,78,0.00,,,0.00,0.000000,,2013-05-29 03:43:00,
2013-05-28 23:53:00,65.0,58.0,-100.00,SW,226,1.0,4.0,78,0.00,,,0.00,0.000000,,2013-05-29 03:53:00,